WAT2067 LHBP-LZIB
Flight info
| Callsign | WAT2067 |
|---|---|
| Flight time | N/A |
| Altitude | 16000 |
| Route | GILEP DCT XOMBA |
| Aircraft | B738/M-SDE2E3FGHIRWXY/LB1 |
Departure
| Time | N/A |
|---|---|
| Airport | Budapest Liszt Ferenc International Airport (LHBP) |
Arrival
| Time | 2026-04-29 01:56 |
|---|---|
| Airport | M. R. Štefánik Airport (LZIB) |
| Time | Latitude | Longitude | Altitude | Speed | Heading |
|---|---|---|---|---|---|
| 2026-04-29 01:55 | 48.16886 | 17.20048 | 421 ft | 0 kts | 314° |
| 2026-04-29 02:12 | 48.16884 | 17.20052 | 419 ft | 3 kts | 313° |
| 2026-04-29 02:12 | 48.16868 | 17.20083 | 423 ft | 4 kts | 294° |
| 2026-04-29 02:12 | 48.16862 | 17.20120 | 425 ft | 4 kts | 256° |
| 2026-04-29 02:13 | 48.16870 | 17.20144 | 420 ft | 1 kts | 224° |
| 2026-04-29 02:13 | 48.16873 | 17.20148 | 421 ft | 0 kts | 224° |
| 2026-04-29 02:15 | 48.16872 | 17.20147 | 421 ft | 0 kts | 218° |
| 2026-04-29 02:15 | 48.16846 | 17.20163 | 421 ft | 8 kts | 134° |
| 2026-04-29 02:15 | 48.16799 | 17.20232 | 424 ft | 10 kts | 137° |
| 2026-04-29 02:15 | 48.16752 | 17.20301 | 426 ft | 9 kts | 136° |
| 2026-04-29 02:16 | 48.16699 | 17.20347 | 429 ft | 9 kts | 184° |
| 2026-04-29 02:16 | 48.16646 | 17.20298 | 426 ft | 9 kts | 220° |
| 2026-04-29 02:16 | 48.16600 | 17.20238 | 427 ft | 9 kts | 221° |
| 2026-04-29 02:16 | 48.16556 | 17.20180 | 432 ft | 8 kts | 221° |
| 2026-04-29 02:17 | 48.16513 | 17.20122 | 432 ft | 8 kts | 221° |
| 2026-04-29 02:17 | 48.16446 | 17.20039 | 433 ft | 15 kts | 218° |
| 2026-04-29 02:17 | 48.16367 | 17.19938 | 433 ft | 15 kts | 220° |
| 2026-04-29 02:17 | 48.16290 | 17.19839 | 433 ft | 14 kts | 220° |
| 2026-04-29 02:18 | 48.16203 | 17.19795 | 432 ft | 14 kts | 168° |
| 2026-04-29 02:18 | 48.16129 | 17.19875 | 431 ft | 13 kts | 133° |
| 2026-04-29 02:18 | 48.16117 | 17.19993 | 430 ft | 13 kts | 53° |
| 2026-04-29 02:18 | 48.16241 | 17.20168 | 423 ft | 61 kts | 43° |
| 2026-04-29 02:19 | 48.16777 | 17.20937 | 427 ft | 149 kts | 44° |
| 2026-04-29 02:19 | 48.17635 | 17.22169 | 1042 ft | 181 kts | 44° |
| 2026-04-29 02:19 | 48.18522 | 17.23467 | 2460 ft | 178 kts | 44° |
| 2026-04-29 02:19 | 48.19487 | 17.24829 | 3092 ft | 206 kts | 44° |
| 2026-04-29 02:20 | 48.20601 | 17.26434 | 3387 ft | 240 kts | 44° |
| 2026-04-29 02:20 | 48.21847 | 17.28219 | 4270 ft | 250 kts | 41° |
| 2026-04-29 02:20 | 48.23244 | 17.29796 | 5329 ft | 254 kts | 31° |
| 2026-04-29 02:20 | 48.24738 | 17.31296 | 6228 ft | 263 kts | 32° |
| 2026-04-29 02:21 | 48.26256 | 17.32859 | 7140 ft | 270 kts | 32° |
| 2026-04-29 02:21 | 48.27827 | 17.34504 | 8124 ft | 274 kts | 32° |
| 2026-04-29 02:21 | 48.29397 | 17.36163 | 9085 ft | 278 kts | 32° |
| 2026-04-29 02:21 | 48.31027 | 17.37759 | 10025 ft | 282 kts | 27° |
| 2026-04-29 02:22 | 48.32737 | 17.39277 | 10655 ft | 300 kts | 27° |
| 2026-04-29 02:22 | 48.34654 | 17.40972 | 10884 ft | 331 kts | 27° |
| 2026-04-29 02:22 | 48.36694 | 17.42773 | 11088 ft | 357 kts | 27° |
| 2026-04-29 02:22 | 48.38901 | 17.44736 | 11331 ft | 379 kts | 28° |
| 2026-04-29 02:23 | 48.41196 | 17.46795 | 11939 ft | 386 kts | 28° |
| 2026-04-29 02:23 | 48.43525 | 17.48881 | 12719 ft | 390 kts | 26° |
| 2026-04-29 02:23 | 48.46027 | 17.50353 | 13530 ft | 386 kts | 8° |
| 2026-04-29 02:23 | 48.48694 | 17.50897 | 14338 ft | 387 kts | 5° |
| 2026-04-29 02:24 | 48.51377 | 17.51479 | 15017 ft | 392 kts | 6° |
| 2026-04-29 02:24 | 48.54092 | 17.52140 | 15671 ft | 397 kts | 6° |
| 2026-04-29 02:24 | 48.56830 | 17.52832 | 16346 ft | 400 kts | 6° |
| 2026-04-29 02:25 | 48.62249 | 17.51971 | 17655 ft | 397 kts | 333° |
| 2026-04-29 02:25 | 48.64583 | 17.49797 | 18465 ft | 395 kts | 319° |
| 2026-04-29 02:25 | 48.66518 | 17.46858 | 19086 ft | 396 kts | 312° |
| 2026-04-29 02:25 | 48.68388 | 17.43769 | 19626 ft | 400 kts | 312° |
| 2026-04-29 02:26 | 48.70271 | 17.40716 | 20151 ft | 403 kts | 313° |
| 2026-04-29 02:26 | 48.72208 | 17.37623 | 20719 ft | 405 kts | 313° |
| 2026-04-29 02:26 | 48.74157 | 17.34532 | 21262 ft | 407 kts | 313° |
| 2026-04-29 02:26 | 48.76120 | 17.31420 | 21787 ft | 410 kts | 313° |
| 2026-04-29 02:27 | 48.78101 | 17.28275 | 22294 ft | 413 kts | 312° |
| 2026-04-29 02:27 | 48.80088 | 17.25111 | 22791 ft | 415 kts | 310° |
| 2026-04-29 02:27 | 48.82130 | 17.21993 | 23250 ft | 418 kts | 316° |
| 2026-04-29 02:27 | 48.84284 | 17.18990 | 23648 ft | 421 kts | 315° |
| 2026-04-29 02:28 | 48.86237 | 17.15667 | 23973 ft | 423 kts | 305° |
| 2026-04-29 02:28 | 48.87861 | 17.11938 | 24246 ft | 425 kts | 303° |
| 2026-04-29 02:28 | 48.89503 | 17.08182 | 24246 ft | 426 kts | 303° |
| 2026-04-29 02:28 | 48.90958 | 17.04910 | 24249 ft | 424 kts | 304° |
| 2026-04-29 02:29 | 48.92623 | 17.01215 | 24266 ft | 423 kts | 304° |